^^
Grace C. Lehan Memorial Weather Station Historical Data
Daily Summary for August 05, 2021 Units:  Both    English   Metric
Daily Weekly Monthly Yearly
  High: Low: Average:
Temperature: 75.1 °F /  23.9 °C 64.8 °F /  18.2 °C 68.7 °F /  20.4 °C
Dew Point: 68.1 °F /  20.1 °C 63.2 °F /  17.3 °C 65.2 °F /  18.4 °C
Humidity: 96% 77.1% 89%
Wind Speed: 3.4mph /  5.5km/h - 0.4mph /  0.6km/h
Wind Gust: 13mph /  20.9km/h - -
Wind- - SSE
Pressure: 30.09 in /  1018.8 hPa 30.02 in /  1016.5 hPa -
Precipitation: 0.06 in /  1.52 mm    
 
 
Tabular Data for August 05, 2021
Time Temperature Dew Point Pressure Wind Wind Speed Wind Gust Humidity Rainfall Rate (Hourly) solar
00:04 67.7 °F /  19.8 °C 63.8 °F /  17.7 °C 30.09in /  1018.8hPa Calm   4mph /  6.4km/h 87.5% 0.00in /  0mm 0 W/m2
00:09 67.5 °F /  19.7 °C 63.8 °F /  17.7 °C 30.09in /  1018.8hPa East 0.6mph /  1km/h 5mph /  8km/h 88% 0.00in /  0mm 0 W/m2
00:14 67.4 °F /  19.7 °C 63.7 °F /  17.6 °C 30.09in /  1018.8hPa East 0.4mph /  0.6km/h 5mph /  8km/h 88% 0.00in /  0mm 0 W/m2
00:19 67.3 °F /  19.6 °C 63.6 °F /  17.6 °C 30.09in /  1018.8hPa East 0.6mph /  1km/h 6mph /  9.7km/h 88% 0.00in /  0mm 0 W/m2
00:24 67.2 °F /  19.6 °C 63.5 °F /  17.5 °C 30.09in /  1018.8hPa NE 3mph /  4.8km/h 7mph /  11.3km/h 88% 0.00in /  0mm 0 W/m2
00:29 67.1 °F /  19.5 °C 63.5 °F /  17.5 °C 30.09in /  1018.8hPa ENE 2.4mph /  3.9km/h 7mph /  11.3km/h 88% 0.00in /  0mm 0 W/m2
00:34 67 °F /  19.4 °C 63.3 °F /  17.4 °C 30.09in /  1018.8hPa NE 2.2mph /  3.5km/h 7mph /  11.3km/h 88% 0.00in /  0mm 0 W/m2
00:39 66.9 °F /  19.4 °C 63.2 °F /  17.3 °C 30.09in /  1018.8hPa ENE 0.7mph /  1.1km/h 5mph /  8km/h 88% 0.00in /  0mm 0 W/m2
00:44 66.8 °F /  19.3 °C 63.2 °F /  17.3 °C 30.09in /  1018.8hPa ENE 1.9mph /  3.1km/h 5mph /  8km/h 88.1% 0.00in /  0mm 0 W/m2
00:49 66.8 °F /  19.3 °C 63.4 °F /  17.4 °C 30.09in /  1018.8hPa ENE 0.2mph /  0.3km/h 5mph /  8km/h 89% 0.00in /  0mm 0 W/m2
00:54 66.7 °F /  19.3 °C 63.4 °F /  17.4 °C 30.09in /  1018.8hPa ENE 1.2mph /  1.9km/h 5mph /  8km/h 89% 0.00in /  0mm 0 W/m2
00:59 66.7 °F /  19.3 °C 63.4 °F /  17.4 °C 30.09in /  1018.8hPa NE 1.4mph /  2.3km/h 6mph /  9.7km/h 89% 0.00in /  0mm 0 W/m2
01:04 66.7 °F /  19.3 °C 63.4 °F /  17.4 °C 30.08in /  1018.5hPa ENE 0.2mph /  0.3km/h 6mph /  9.7km/h 89% 0.00in /  0mm 0 W/m2
01:09 66.6 °F /  19.2 °C 63.3 °F /  17.4 °C 30.08in /  1018.5hPa ENE 0.3mph /  0.5km/h 2mph /  3.2km/h 89% 0.00in /  0mm 0 W/m2
01:14 66.6 °F /  19.2 °C 63.3 °F /  17.4 °C 30.08in /  1018.5hPa Calm   2mph /  3.2km/h 89% 0.00in /  0mm 0 W/m2
01:19 66.6 °F /  19.2 °C 63.3 °F /  17.4 °C 30.08in /  1018.5hPa ENE 0.4mph /  0.6km/h 3mph /  4.8km/h 89% 0.00in /  0mm 0 W/m2
01:24 66.6 °F /  19.2 °C 63.2 °F /  17.3 °C 30.08in /  1018.5hPa Calm   3mph /  4.8km/h 89% 0.00in /  0mm 0 W/m2
01:29 66.5 °F /  19.2 °C 63.3 °F /  17.4 °C 30.08in /  1018.5hPa ENE 0.4mph /  0.6km/h 3mph /  4.8km/h 89.3% 0.00in /  0mm 0 W/m2
01:34 66.5 °F /  19.2 °C 63.2 °F /  17.3 °C 30.08in /  1018.5hPa ENE 1mph /  1.6km/h 5mph /  8km/h 89% 0.00in /  0mm 0 W/m2
01:39 66.5 °F /  19.2 °C 63.2 °F /  17.3 °C 30.08in /  1018.5hPa ENE 0.5mph /  0.8km/h 5mph /  8km/h 89% 0.00in /  0mm 0 W/m2
01:44 66.5 °F /  19.2 °C 63.2 °F /  17.3 °C 30.08in /  1018.5hPa ENE 1mph /  1.6km/h 5mph /  8km/h 89% 0.00in /  0mm 0 W/m2
01:49 66.5 °F /  19.2 °C 63.2 °F /  17.3 °C 30.08in /  1018.5hPa Calm   5mph /  8km/h 89.1% 0.00in /  0mm 0 W/m2
01:54 66.5 °F /  19.2 °C 63.4 °F /  17.4 °C 30.08in /  1018.5hPa ENE 0.1mph /  0.2km/h 5mph /  8km/h 89.7% 0.00in /  0mm 0 W/m2
01:59 66.5 °F /  19.2 °C 63.3 °F /  17.4 °C 30.08in /  1018.5hPa ENE 1.1mph /  1.8km/h 5mph /  8km/h 89.3% 0.00in /  0mm 0 W/m2
02:04 66.5 °F /  19.2 °C 63.2 °F /  17.3 °C 30.07in /  1018.2hPa ENE 0.3mph /  0.5km/h 5mph /  8km/h 89% 0.00in /  0mm 0 W/m2
02:09 66.5 °F /  19.2 °C 63.3 °F /  17.4 °C 30.07in /  1018.2hPa Calm   4mph /  6.4km/h 89.3% 0.00in /  0mm 0 W/m2
02:14 66.5 °F /  19.2 °C 63.4 °F /  17.4 °C 30.07in /  1018.2hPa ENE 0.1mph /  0.2km/h 4mph /  6.4km/h 89.7% 0.00in /  0mm 0 W/m2
02:19 66.5 °F /  19.2 °C 63.4 °F /  17.4 °C 30.07in /  1018.2hPa ENE 0.7mph /  1.1km/h 9mph /  14.5km/h 90% 0.00in /  0mm 0 W/m2
02:24 66.4 °F /  19.1 °C 63.4 °F /  17.4 °C 30.07in /  1018.2hPa ENE 0.9mph /  1.4km/h 9mph /  14.5km/h 90% 0.00in /  0mm 0 W/m2
02:29 66.4 °F /  19.1 °C 63.4 °F /  17.4 °C 30.07in /  1018.2hPa ENE 0.4mph /  0.6km/h 9mph /  14.5km/h 90% 0.00in /  0mm 0 W/m2
02:34 66.4 °F /  19.1 °C 63.4 °F /  17.4 °C 30.07in /  1018.2hPa ENE 0.2mph /  0.3km/h 9mph /  14.5km/h 90% 0.00in /  0mm 0 W/m2
02:39 66.4 °F /  19.1 °C 63.4 °F /  17.4 °C 30.07in /  1018.2hPa NE 0.7mph /  1.1km/h 6mph /  9.7km/h 90% 0.00in /  0mm 0 W/m2
02:44 66.3 °F /  19.1 °C 63.5 °F /  17.5 °C 30.07in /  1018.2hPa NE 0.1mph /  0.2km/h 6mph /  9.7km/h 90.5% 0.00in /  0mm 0 W/m2
02:49 66.3 °F /  19.1 °C 63.6 °F /  17.6 °C 30.07in /  1018.2hPa NE 0.5mph /  0.8km/h 6mph /  9.7km/h 91% 0.00in /  0mm 0 W/m2
02:54 66.3 °F /  19.1 °C 63.6 °F /  17.6 °C 30.07in /  1018.2hPa Calm   6mph /  9.7km/h 91% 0.00in /  0mm 0 W/m2
02:59 66.2 °F /  19 °C 63.5 °F /  17.5 °C 30.06in /  1017.8hPa NE 0.1mph /  0.2km/h 6mph /  9.7km/h 91% 0.00in /  0mm 0 W/m2
03:04 66.2 °F /  19 °C 63.5 °F /  17.5 °C 30.06in /  1017.8hPa North 0.9mph /  1.4km/h 7mph /  11.3km/h 91% 0.00in /  0mm 0 W/m2
03:09 66.1 °F /  18.9 °C 63.7 °F /  17.6 °C 30.06in /  1017.8hPa NW 1mph /  1.6km/h 7mph /  11.3km/h 92% 0.00in /  0mm 0 W/m2
03:14 66 °F /  18.9 °C 63.6 °F /  17.6 °C 30.06in /  1017.8hPa NW 0.1mph /  0.2km/h 7mph /  11.3km/h 92% 0.00in /  0mm 0 W/m2
03:19 66 °F /  18.9 °C 63.6 °F /  17.6 °C 30.06in /  1017.8hPa NW 0.4mph /  0.6km/h 7mph /  11.3km/h 92% 0.00in /  0mm 0 W/m2
03:24 65.9 °F /  18.8 °C 63.5 °F /  17.5 °C 30.06in /  1017.8hPa NW 0.8mph /  1.3km/h 7mph /  11.3km/h 92.1% 0.00in /  0mm 0 W/m2
03:29 65.8 °F /  18.8 °C 63.7 °F /  17.6 °C 30.06in /  1017.8hPa Calm   7mph /  11.3km/h 93% 0.00in /  0mm 0 W/m2
03:34 65.7 °F /  18.7 °C 63.7 °F /  17.6 °C 30.06in /  1017.8hPa Calm   7mph /  11.3km/h 93% 0.00in /  0mm 0 W/m2
03:39 65.7 °F /  18.7 °C 63.6 °F /  17.6 °C 30.06in /  1017.8hPa NW 0.4mph /  0.6km/h 5mph /  8km/h 93% 0.00in /  0mm 0 W/m2
03:44 65.6 °F /  18.7 °C 63.5 °F /  17.5 °C 30.05in /  1017.5hPa NNW 0.5mph /  0.8km/h 5mph /  8km/h 93% 0.00in /  0mm 0 W/m2
03:49 65.6 °F /  18.7 °C 63.5 °F /  17.5 °C 30.05in /  1017.5hPa NNW 0.1mph /  0.2km/h 5mph /  8km/h 93% 0.00in /  0mm 0 W/m2
03:54 65.6 °F /  18.7 °C 63.5 °F /  17.5 °C 30.05in /  1017.5hPa NNW 0.2mph /  0.3km/h 5mph /  8km/h 93% 0.00in /  0mm 0 W/m2
03:59 65.6 °F /  18.7 °C 63.5 °F /  17.5 °C 30.05in /  1017.5hPa NNW 0.2mph /  0.3km/h 5mph /  8km/h 93% 0.00in /  0mm 0 W/m2
04:09 65.4 °F /  18.6 °C 63.6 °F /  17.6 °C 30.05in /  1017.5hPa Calm     94% 0.01in /  0.25mm 0 W/m2
04:14 65.4 °F /  18.6 °C 63.6 °F /  17.6 °C 30.05in /  1017.5hPa Calm   2mph /  3.2km/h 94% 0.01in /  0.25mm 0 W/m2
04:19 65.4 °F /  18.6 °C 63.6 °F /  17.6 °C 30.05in /  1017.5hPa NNW 0.3mph /  0.5km/h 4mph /  6.4km/h 94% 0.01in /  0.25mm 0 W/m2
04:24 65.4 °F /  18.6 °C 63.6 °F /  17.6 °C 30.05in /  1017.5hPa NNW 0.5mph /  0.8km/h 4mph /  6.4km/h 94% 0.01in /  0.25mm 0 W/m2
04:29 65.3 °F /  18.5 °C 63.5 °F /  17.5 °C 30.05in /  1017.5hPa North 0.2mph /  0.3km/h 4mph /  6.4km/h 94% 0.01in /  0.25mm 0 W/m2
04:34 65.3 °F /  18.5 °C 63.5 °F /  17.5 °C 30.05in /  1017.5hPa Calm   4mph /  6.4km/h 94% 0.01in /  0.25mm 0 W/m2
04:39 65.3 °F /  18.5 °C 63.5 °F /  17.5 °C 30.05in /  1017.5hPa Calm   1mph /  1.6km/h 94% 0.01in /  0.25mm 0 W/m2
04:44 65.2 °F /  18.4 °C 63.4 °F /  17.4 °C 30.05in /  1017.5hPa Calm   1mph /  1.6km/h 94% 0.01in /  0.25mm 0 W/m2
04:49 65.2 °F /  18.4 °C 63.4 °F /  17.4 °C 30.05in /  1017.5hPa Calm   1mph /  1.6km/h 94% 0.01in /  0.25mm 0 W/m2
04:54 65.1 °F /  18.4 °C 63.3 °F /  17.4 °C 30.05in /  1017.5hPa Calm   1mph /  1.6km/h 94% 0.01in /  0.25mm 0 W/m2
04:59 65.1 °F /  18.4 °C 63.3 °F /  17.4 °C 30.05in /  1017.5hPa Calm   1mph /  1.6km/h 94% 0.02in /  0.51mm 0 W/m2
05:04 65.1 °F /  18.4 °C 63.3 °F /  17.4 °C 30.05in /  1017.5hPa Calm   1mph /  1.6km/h 94% 0.02in /  0.51mm 0 W/m2
05:09 65.1 °F /  18.4 °C 63.3 °F /  17.4 °C 30.05in /  1017.5hPa Calm     94% 0.01in /  0.25mm 0 W/m2
05:14 65.1 °F /  18.4 °C 63.4 °F /  17.4 °C 30.05in /  1017.5hPa Calm     94.2% 0.01in /  0.25mm 0 W/m2
05:19 65 °F /  18.3 °C 63.5 °F /  17.5 °C 30.05in /  1017.5hPa NNE 0.1mph /  0.2km/h 3mph /  4.8km/h 94.9% 0.02in /  0.51mm 0 W/m2
05:24 65 °F /  18.3 °C 63.6 °F /  17.6 °C 30.05in /  1017.5hPa Calm   3mph /  4.8km/h 95% 0.02in /  0.51mm 0 W/m2
05:29 65 °F /  18.3 °C 63.6 °F /  17.6 °C 30.05in /  1017.5hPa NNE 0.1mph /  0.2km/h 3mph /  4.8km/h 95% 0.02in /  0.51mm 0 W/m2
05:34 65 °F /  18.3 °C 63.5 °F /  17.5 °C 30.05in /  1017.5hPa Calm   3mph /  4.8km/h 95% 0.02in /  0.51mm 0 W/m2
05:39 65 °F /  18.3 °C 63.5 °F /  17.5 °C 30.05in /  1017.5hPa Calm   1mph /  1.6km/h 95% 0.02in /  0.51mm 0 W/m2
05:44 65 °F /  18.3 °C 63.5 °F /  17.5 °C 30.05in /  1017.5hPa NE 0.5mph /  0.8km/h 5mph /  8km/h 95% 0.02in /  0.51mm 0 W/m2
05:49 64.9 °F /  18.3 °C 63.5 °F /  17.5 °C 30.05in /  1017.5hPa ENE 0.1mph /  0.2km/h 5mph /  8km/h 95% 0.02in /  0.51mm 0 W/m2
05:54 64.9 °F /  18.3 °C 63.4 °F /  17.4 °C 30.05in /  1017.5hPa ENE 0.6mph /  1km/h 6mph /  9.7km/h 95% 0.02in /  0.51mm 0 W/m2
05:59 64.9 °F /  18.3 °C 63.4 °F /  17.4 °C 30.05in /  1017.5hPa ENE 0.2mph /  0.3km/h 6mph /  9.7km/h 95% 0.02in /  0.51mm 0 W/m2
06:04 64.9 °F /  18.3 °C 63.4 °F /  17.4 °C 30.06in /  1017.8hPa ENE 1.1mph /  1.8km/h 6mph /  9.7km/h 95% 0.02in /  0.51mm 0 W/m2
06:09 64.9 °F /  18.3 °C 63.4 °F /  17.4 °C 30.06in /  1017.8hPa ENE 0.2mph /  0.3km/h 6mph /  9.7km/h 95% 0.02in /  0.51mm 0 W/m2
06:14 64.8 °F /  18.2 °C 63.3 °F /  17.4 °C 30.06in /  1017.8hPa ENE 0.7mph /  1.1km/h 6mph /  9.7km/h 95% 0.02in /  0.51mm 5 W/m2
06:19 64.8 °F /  18.2 °C 63.3 °F /  17.4 °C 30.06in /  1017.8hPa Calm   6mph /  9.7km/h 95% 0.02in /  0.51mm 5 W/m2
06:24 64.8 °F /  18.2 °C 63.3 °F /  17.4 °C 30.06in /  1017.8hPa Calm   6mph /  9.7km/h 95% 0.03in /  0.76mm 7 W/m2
06:29 64.9 °F /  18.3 °C 63.4 °F /  17.4 °C 30.06in /  1017.8hPa Calm   6mph /  9.7km/h 95% 0.03in /  0.76mm 9 W/m2
06:34 64.9 °F /  18.3 °C 63.4 °F /  17.4 °C 30.06in /  1017.8hPa ENE 0.1mph /  0.2km/h 6mph /  9.7km/h 95% 0.03in /  0.76mm 9 W/m2
06:39 64.8 °F /  18.2 °C 63.4 °F /  17.4 °C 30.06in /  1017.8hPa ENE 0.6mph /  1km/h 4mph /  6.4km/h 95% 0.02in /  0.51mm 11 W/m2
06:44 64.8 °F /  18.2 °C 63.3 °F /  17.4 °C 30.06in /  1017.8hPa ENE 0.7mph /  1.1km/h 4mph /  6.4km/h 95% 0.02in /  0.51mm 14 W/m2
06:49 64.8 °F /  18.2 °C 63.3 °F /  17.4 °C 30.06in /  1017.8hPa ENE 0.5mph /  0.8km/h 4mph /  6.4km/h 95% 0.02in /  0.51mm 14 W/m2
06:54 64.8 °F /  18.2 °C 63.4 °F /  17.4 °C 30.06in /  1017.8hPa Calm   4mph /  6.4km/h 95% 0.02in /  0.51mm 16 W/m2
06:59 64.9 °F /  18.3 °C 63.4 °F /  17.4 °C 30.06in /  1017.8hPa Calm   4mph /  6.4km/h 95% 0.02in /  0.51mm 23 W/m2
07:04 64.9 °F /  18.3 °C 63.6 °F /  17.6 °C 30.06in /  1017.8hPa Calm   4mph /  6.4km/h 95.4% 0.02in /  0.51mm 19 W/m2
07:09 65 °F /  18.3 °C 63.9 °F /  17.7 °C 30.06in /  1017.8hPa Calm   2mph /  3.2km/h 96% 0.03in /  0.76mm 19 W/m2
07:14 65 °F /  18.3 °C 63.9 °F /  17.7 °C 30.06in /  1017.8hPa ENE 0.1mph /  0.2km/h 2mph /  3.2km/h 96% 0.03in /  0.76mm 19 W/m2
07:19 65 °F /  18.3 °C 63.8 °F /  17.7 °C 30.06in /  1017.8hPa Calm   2mph /  3.2km/h 96% 0.03in /  0.76mm 21 W/m2
07:24 65 °F /  18.3 °C 63.9 °F /  17.7 °C 30.07in /  1018.2hPa ENE 0.2mph /  0.3km/h 3mph /  4.8km/h 96% 0.03in /  0.76mm 26 W/m2
07:29 65.1 °F /  18.4 °C 63.9 °F /  17.7 °C 30.07in /  1018.2hPa ENE 0.3mph /  0.5km/h 4mph /  6.4km/h 96% 0.03in /  0.76mm 33 W/m2
07:34 65.1 °F /  18.4 °C 64 °F /  17.8 °C 30.06in /  1017.8hPa NNE 1.1mph /  1.8km/h 7mph /  11.3km/h 96% 0.03in /  0.76mm 39 W/m2
07:39 65.2 °F /  18.4 °C 64 °F /  17.8 °C 30.06in /  1017.8hPa Calm   7mph /  11.3km/h 96% 0.01in /  0.25mm 33 W/m2
07:44 65.2 °F /  18.4 °C 64 °F /  17.8 °C 30.06in /  1017.8hPa NW 0.4mph /  0.6km/h 7mph /  11.3km/h 96% 0.01in /  0.25mm 32 W/m2
07:49 65.2 °F /  18.4 °C 64 °F /  17.8 °C 30.06in /  1017.8hPa North 0.2mph /  0.3km/h 7mph /  11.3km/h 96% 0.01in /  0.25mm 37 W/m2
07:54 65.2 °F /  18.4 °C 64 °F /  17.8 °C 30.06in /  1017.8hPa NE 0.1mph /  0.2km/h 7mph /  11.3km/h 96% 0.01in /  0.25mm 37 W/m2
07:59 65.2 °F /  18.4 °C 64 °F /  17.8 °C 30.06in /  1017.8hPa NE 0.1mph /  0.2km/h 7mph /  11.3km/h 96% 0.01in /  0.25mm 28 W/m2
08:00 65.2 °F /  18.4 °C 64 °F /  17.8 °C 30.06in /  1017.8hPa Calm   7mph /  11.3km/h 96% 0.01in /  0.25mm 26 W/m2
08:09 65.2 °F /  18.4 °C 64 °F /  17.8 °C 30.06in /  1017.8hPa Calm   1mph /  1.6km/h 96% 0.01in /  0.25mm 30 W/m2
08:14 65.2 °F /  18.4 °C 64 °F /  17.8 °C 30.06in /  1017.8hPa Calm   1mph /  1.6km/h 96% 0.01in /  0.25mm 37 W/m2
08:19 65.2 °F /  18.4 °C 64 °F /  17.8 °C 30.06in /  1017.8hPa Calm   1mph /  1.6km/h 96% 0.01in /  0.25mm 39 W/m2
08:24 65.2 °F /  18.4 °C 64.1 °F /  17.8 °C 30.06in /  1017.8hPa Calm   1mph /  1.6km/h 96% 0.01in /  0.25mm 40 W/m2
08:29 65.3 °F /  18.5 °C 64.2 °F /  17.9 °C 30.06in /  1017.8hPa NNE 0.5mph /  0.8km/h 4mph /  6.4km/h 96% 0.01in /  0.25mm 37 W/m2
08:34 65.4 °F /  18.6 °C 64.2 °F /  17.9 °C 30.06in /  1017.8hPa Calm   4mph /  6.4km/h 96% 0.01in /  0.25mm 40 W/m2
08:39 65.4 °F /  18.6 °C 64.3 °F /  17.9 °C 30.05in /  1017.5hPa NNE 0.3mph /  0.5km/h 3mph /  4.8km/h 96% 0.00in /  0mm 44 W/m2
08:44 65.3 °F /  18.5 °C 64 °F /  17.8 °C 30.05in /  1017.5hPa NNE 0.6mph /  1km/h 5mph /  8km/h 95.4% 0.00in /  0mm 47 W/m2
08:49 65.3 °F /  18.5 °C 63.8 °F /  17.7 °C 30.05in /  1017.5hPa NNE 0.3mph /  0.5km/h 5mph /  8km/h 95% 0.00in /  0mm 47 W/m2
08:54 65.2 °F /  18.4 °C 63.9 °F /  17.7 °C 30.05in /  1017.5hPa NNE 0.2mph /  0.3km/h 5mph /  8km/h 95.5% 0.00in /  0mm 46 W/m2
08:59 65.2 °F /  18.4 °C 64 °F /  17.8 °C 30.05in /  1017.5hPa North 0.7mph /  1.1km/h 5mph /  8km/h 95.8% 0.00in /  0mm 47 W/m2
09:04 65.3 °F /  18.5 °C 63.9 °F /  17.7 °C 30.05in /  1017.5hPa NNE 0.2mph /  0.3km/h 5mph /  8km/h 95.3% 0.00in /  0mm 47 W/m2
09:09 65.4 °F /  18.6 °C 64.2 °F /  17.9 °C 30.06in /  1017.8hPa NNE 0.7mph /  1.1km/h 5mph /  8km/h 96% 0.00in /  0mm 44 W/m2
09:14 65.4 °F /  18.6 °C 64.2 °F /  17.9 °C 30.05in /  1017.5hPa Calm   5mph /  8km/h 95.7% 0.00in /  0mm 53 W/m2
09:19 65.6 °F /  18.7 °C 64.4 °F /  18 °C 30.06in /  1017.8hPa NW 0.9mph /  1.4km/h 7mph /  11.3km/h 96% 0.00in /  0mm 53 W/m2
09:24 65.6 °F /  18.7 °C 64.4 °F /  18 °C 30.06in /  1017.8hPa Calm   7mph /  11.3km/h 96% 0.00in /  0mm 49 W/m2
09:29 65.7 °F /  18.7 °C 64.5 °F /  18.1 °C 30.06in /  1017.8hPa Calm   7mph /  11.3km/h 96% 0.00in /  0mm 58 W/m2
09:34 65.8 °F /  18.8 °C 64.6 °F /  18.1 °C 30.06in /  1017.8hPa NW 0.2mph /  0.3km/h 7mph /  11.3km/h 96% 0.00in /  0mm 54 W/m2
09:39 65.8 °F /  18.8 °C 64.7 °F /  18.2 °C 30.06in /  1017.8hPa NW 0.2mph /  0.3km/h 4mph /  6.4km/h 96% 0.00in /  0mm 72 W/m2
09:44 65.9 °F /  18.8 °C 64.5 °F /  18.1 °C 30.06in /  1017.8hPa NW 0.2mph /  0.3km/h 4mph /  6.4km/h 95.4% 0.00in /  0mm 69 W/m2
09:49 65.9 °F /  18.8 °C 64.4 °F /  18 °C 30.06in /  1017.8hPa NW 1.3mph /  2.1km/h 9mph /  14.5km/h 95% 0.00in /  0mm 69 W/m2
09:54 65.9 °F /  18.8 °C 64.4 °F /  18 °C 30.05in /  1017.5hPa NW 0.4mph /  0.6km/h 9mph /  14.5km/h 95% 0.00in /  0mm 79 W/m2
09:59 66 °F /  18.9 °C 64.5 °F /  18.1 °C 30.06in /  1017.8hPa NNW 1.2mph /  1.9km/h 9mph /  14.5km/h 95% 0.00in /  0mm 83 W/m2
10:04 66 °F /  18.9 °C 64.5 °F /  18.1 °C 30.06in /  1017.8hPa NNW 0.6mph /  1km/h 9mph /  14.5km/h 95% 0.00in /  0mm 81 W/m2
10:09 66 °F /  18.9 °C 64.6 °F /  18.1 °C 30.06in /  1017.8hPa North 0.1mph /  0.2km/h 5mph /  8km/h 95% 0.00in /  0mm 97 W/m2
10:14 66.2 °F /  19 °C 64.7 °F /  18.2 °C 30.06in /  1017.8hPa Calm   5mph /  8km/h 95% 0.00in /  0mm 97 W/m2
10:19 66.3 °F /  19.1 °C 64.8 °F /  18.2 °C 30.06in /  1017.8hPa North 0.8mph /  1.3km/h 5mph /  8km/h 95% 0.00in /  0mm 83 W/m2
10:24 66.3 °F /  19.1 °C 64.8 °F /  18.2 °C 30.06in /  1017.8hPa NNE 0.1mph /  0.2km/h 5mph /  8km/h 95% 0.00in /  0mm 83 W/m2
10:29 66.4 °F /  19.1 °C 64.9 °F /  18.3 °C 30.06in /  1017.8hPa Calm   5mph /  8km/h 95% 0.00in /  0mm 69 W/m2
10:34 66.4 °F /  19.1 °C 64.9 °F /  18.3 °C 30.06in /  1017.8hPa Calm   5mph /  8km/h 95% 0.00in /  0mm 95 W/m2
10:39 66.5 °F /  19.2 °C 65 °F /  18.3 °C 30.06in /  1017.8hPa NNE 0.9mph /  1.4km/h 5mph /  8km/h 95% 0.00in /  0mm 97 W/m2
10:44 66.7 °F /  19.3 °C 65.2 °F /  18.4 °C 30.07in /  1018.2hPa NNE 0.5mph /  0.8km/h 5mph /  8km/h 95% 0.00in /  0mm 97 W/m2
10:49 66.8 °F /  19.3 °C 65.4 °F /  18.6 °C 30.07in /  1018.2hPa NNE 0.4mph /  0.6km/h 5mph /  8km/h 95% 0.00in /  0mm 111 W/m2
10:54 67 °F /  19.4 °C 65.5 °F /  18.6 °C 30.07in /  1018.2hPa NNE 0.5mph /  0.8km/h 5mph /  8km/h 95% 0.00in /  0mm 111 W/m2
10:59 67 °F /  19.4 °C 65.5 °F /  18.6 °C 30.07in /  1018.2hPa Calm   5mph /  8km/h 95% 0.00in /  0mm 97 W/m2
11:04 67 °F /  19.4 °C 65.5 °F /  18.6 °C 30.07in /  1018.2hPa NNE 0.7mph /  1.1km/h 5mph /  8km/h 94.8% 0.00in /  0mm 84 W/m2
11:09 67.1 °F /  19.5 °C 65.3 °F /  18.5 °C 30.07in /  1018.2hPa Calm   5mph /  8km/h 94% 0.00in /  0mm 79 W/m2
11:14 67.2 °F /  19.6 °C 65.4 °F /  18.6 °C 30.07in /  1018.2hPa NNE 0.2mph /  0.3km/h 5mph /  8km/h 94% 0.00in /  0mm 104 W/m2
11:19 67.1 °F /  19.5 °C 65.4 °F /  18.6 °C 30.07in /  1018.2hPa NNE 0.2mph /  0.3km/h 5mph /  8km/h 94% 0.00in /  0mm 104 W/m2
11:24 67.2 °F /  19.6 °C 65.4 °F /  18.6 °C 30.07in /  1018.2hPa NNW 0.8mph /  1.3km/h 5mph /  8km/h 94% 0.00in /  0mm 107 W/m2
11:29 67.2 °F /  19.6 °C 65.4 °F /  18.6 °C 30.07in /  1018.2hPa North 0.2mph /  0.3km/h 5mph /  8km/h 94% 0.00in /  0mm 107 W/m2
11:34 67.2 °F /  19.6 °C 65.4 °F /  18.6 °C 30.07in /  1018.2hPa North 0.8mph /  1.3km/h 6mph /  9.7km/h 94% 0.00in /  0mm 121 W/m2
11:39 67.2 °F /  19.6 °C 65.4 °F /  18.6 °C 30.07in /  1018.2hPa NNW 1.3mph /  2.1km/h 7mph /  11.3km/h 94% 0.00in /  0mm 111 W/m2
11:44 67.3 °F /  19.6 °C 65.5 °F /  18.6 °C 30.07in /  1018.2hPa NNW 0.9mph /  1.4km/h 7mph /  11.3km/h 94% 0.00in /  0mm 139 W/m2
11:49 67.4 °F /  19.7 °C 65.7 °F /  18.7 °C 30.07in /  1018.2hPa NNW 0.7mph /  1.1km/h 7mph /  11.3km/h 94% 0.00in /  0mm 114 W/m2
11:54 67.6 °F /  19.8 °C 65.8 °F /  18.8 °C 30.07in /  1018.2hPa WNW 1.2mph /  1.9km/h 9mph /  14.5km/h 94% 0.00in /  0mm 114 W/m2
11:59 67.7 °F /  19.8 °C 65.9 °F /  18.8 °C 30.07in /  1018.2hPa NW 0.5mph /  0.8km/h 9mph /  14.5km/h 94% 0.00in /  0mm 114 W/m2
12:00 67.7 °F /  19.8 °C 65.9 °F /  18.8 °C 30.07in /  1018.2hPa Calm   9mph /  14.5km/h 94% 0.00in /  0mm 114 W/m2
12:09 67.8 °F /  19.9 °C 66 °F /  18.9 °C 30.07in /  1018.2hPa NNW 1.1mph /  1.8km/h 4mph /  6.4km/h 94% 0.00in /  0mm 192 W/m2
12:14 67.9 °F /  19.9 °C 66.1 °F /  18.9 °C 30.07in /  1018.2hPa NNW 2.2mph /  3.5km/h 7mph /  11.3km/h 93.8% 0.00in /  0mm 155 W/m2
12:19 68 °F /  20 °C 66 °F /  18.9 °C 30.06in /  1017.8hPa NW 0.9mph /  1.4km/h 7mph /  11.3km/h 93.5% 0.00in /  0mm 221 W/m2
12:24 68.1 °F /  20.1 °C 66.2 °F /  19 °C 30.06in /  1017.8hPa NW 0.5mph /  0.8km/h 7mph /  11.3km/h 93.5% 0.00in /  0mm 304 W/m2
12:29 68.4 °F /  20.2 °C 66.4 °F /  19.1 °C 30.06in /  1017.8hPa NNW 2.1mph /  3.4km/h 7mph /  11.3km/h 93.3% 0.00in /  0mm 308 W/m2
12:34 68.6 °F /  20.3 °C 66.5 °F /  19.2 °C 30.06in /  1017.8hPa NNW 2.8mph /  4.5km/h 11mph /  17.7km/h 93% 0.00in /  0mm 258 W/m2
12:39 68.7 °F /  20.4 °C 66.4 °F /  19.1 °C 30.06in /  1017.8hPa NNW 0.4mph /  0.6km/h 11mph /  17.7km/h 92.2% 0.00in /  0mm 258 W/m2
12:44 69 °F /  20.6 °C 66.6 °F /  19.2 °C 30.06in /  1017.8hPa North 0.2mph /  0.3km/h 11mph /  17.7km/h 92% 0.00in /  0mm 262 W/m2
12:49 69.2 °F /  20.7 °C 66.6 °F /  19.2 °C 30.06in /  1017.8hPa NE 1.2mph /  1.9km/h 11mph /  17.7km/h 91.3% 0.00in /  0mm 306 W/m2
12:54 69.5 °F /  20.8 °C 66.6 °F /  19.2 °C 30.06in /  1017.8hPa North 0.2mph /  0.3km/h 11mph /  17.7km/h 90.5% 0.00in /  0mm 139 W/m2
12:59 69.5 °F /  20.8 °C 66.2 °F /  19 °C 30.06in /  1017.8hPa NNE 0.1mph /  0.2km/h 11mph /  17.7km/h 89.3% 0.00in /  0mm 113 W/m2
13:04 69.4 °F /  20.8 °C 65.8 °F /  18.8 °C 30.06in /  1017.8hPa NNW 1.6mph /  2.6km/h 11mph /  17.7km/h 88.3% 0.00in /  0mm 149 W/m2
13:09 69.5 °F /  20.8 °C 65.9 °F /  18.8 °C 30.05in /  1017.5hPa NNW 0.2mph /  0.3km/h 6mph /  9.7km/h 88.4% 0.00in /  0mm 153 W/m2
13:14 69.6 °F /  20.9 °C 66 °F /  18.9 °C 30.05in /  1017.5hPa North 0.2mph /  0.3km/h 6mph /  9.7km/h 88.4% 0.00in /  0mm 185 W/m2
13:19 69.6 °F /  20.9 °C 65.7 °F /  18.7 °C 30.05in /  1017.5hPa NE 1.1mph /  1.8km/h 6mph /  9.7km/h 87.4% 0.00in /  0mm 202 W/m2
13:24 69.7 °F /  20.9 °C 65.8 °F /  18.8 °C 30.05in /  1017.5hPa North 1.1mph /  1.8km/h 9mph /  14.5km/h 87.4% 0.00in /  0mm 197 W/m2
13:29 69.9 °F /  21.1 °C 65.9 °F /  18.8 °C 30.05in /  1017.5hPa NNW 3.4mph /  5.5km/h 11mph /  17.7km/h 87% 0.00in /  0mm 218 W/m2
13:34 70.1 °F /  21.2 °C 65.9 °F /  18.8 °C 30.05in /  1017.5hPa North 1mph /  1.6km/h 13mph /  20.9km/h 86.5% 0.00in /  0mm 248 W/m2
13:39 70.2 °F /  21.2 °C 65.9 °F /  18.8 °C 30.05in /  1017.5hPa NNE 0.5mph /  0.8km/h 13mph /  20.9km/h 86.2% 0.00in /  0mm 429 W/m2
13:44 70.6 °F /  21.4 °C 66.4 °F /  19.1 °C 30.05in /  1017.5hPa NNW 1.3mph /  2.1km/h 13mph /  20.9km/h 86.5% 0.00in /  0mm 429 W/m2
13:49 70.8 °F /  21.6 °C 66 °F /  18.9 °C 30.05in /  1017.5hPa NE 1.9mph /  3.1km/h 13mph /  20.9km/h 84.8% 0.00in /  0mm 413 W/m2
13:54 70.9 °F /  21.6 °C 65.9 °F /  18.8 °C 30.05in /  1017.5hPa ENE 0.8mph /  1.3km/h 13mph /  20.9km/h 84% 0.00in /  0mm 378 W/m2
13:59 71.1 °F /  21.7 °C 66.1 °F /  18.9 °C 30.04in /  1017.2hPa ENE 2mph /  3.2km/h 13mph /  20.9km/h 84.3% 0.00in /  0mm 336 W/m2
14:04 71.2 °F /  21.8 °C 66 °F /  18.9 °C 30.04in /  1017.2hPa NE 0.4mph /  0.6km/h 13mph /  20.9km/h 83.5% 0.00in /  0mm 174 W/m2
14:09 71.3 °F /  21.8 °C 66 °F /  18.9 °C 30.04in /  1017.2hPa East 0.6mph /  1km/h 4mph /  6.4km/h 83.5% 0.00in /  0mm 540 W/m2
14:14 71.4 °F /  21.9 °C 66.1 °F /  18.9 °C 30.05in /  1017.5hPa NE 0.9mph /  1.4km/h 5mph /  8km/h 83.3% 0.00in /  0mm 540 W/m2
14:19 71.6 °F /  22 °C 66.5 °F /  19.2 °C 30.05in /  1017.5hPa NNW 3mph /  4.8km/h 9mph /  14.5km/h 84% 0.00in /  0mm 267 W/m2
14:24 71.7 °F /  22.1 °C 66.6 °F /  19.2 °C 30.04in /  1017.2hPa NW 0.8mph /  1.3km/h 9mph /  14.5km/h 84% 0.00in /  0mm 411 W/m2
14:29 72 °F /  22.2 °C 66.9 °F /  19.4 °C 30.04in /  1017.2hPa NNW 0.4mph /  0.6km/h 9mph /  14.5km/h 84.1% 0.00in /  0mm 348 W/m2
14:34 72.2 °F /  22.3 °C 66.5 °F /  19.2 °C 30.04in /  1017.2hPa NE 0.5mph /  0.8km/h 9mph /  14.5km/h 82.5% 0.00in /  0mm 178 W/m2
14:39 72.2 °F /  22.3 °C 66.7 °F /  19.3 °C 30.05in /  1017.5hPa NNE 0.2mph /  0.3km/h 3mph /  4.8km/h 82.8% 0.00in /  0mm 209 W/m2
14:44 72.4 °F /  22.4 °C 67.1 °F /  19.5 °C 30.05in /  1017.5hPa WNW 1.6mph /  2.6km/h 7mph /  11.3km/h 83.5% 0.00in /  0mm 367 W/m2
14:49 72.6 °F /  22.6 °C 67.2 °F /  19.6 °C 30.04in /  1017.2hPa NNW 1.1mph /  1.8km/h 7mph /  11.3km/h 83.2% 0.00in /  0mm 559 W/m2
14:54 72.9 °F /  22.7 °C 67.2 °F /  19.6 °C 30.04in /  1017.2hPa NNW 1.4mph /  2.3km/h 7mph /  11.3km/h 82.2% 0.00in /  0mm 232 W/m2
14:59 73 °F /  22.8 °C 66.9 °F /  19.4 °C 30.04in /  1017.2hPa NE 1mph /  1.6km/h 7mph /  11.3km/h 81.2% 0.00in /  0mm 213 W/m2
15:04 73.1 °F /  22.8 °C 67.3 °F /  19.6 °C 30.04in /  1017.2hPa NNW 0.4mph /  0.6km/h 7mph /  11.3km/h 82% 0.00in /  0mm 443 W/m2
15:09 73.3 °F /  22.9 °C 67.5 °F /  19.7 °C 30.03in /  1016.8hPa North 0.8mph /  1.3km/h 7mph /  11.3km/h 82% 0.00in /  0mm 457 W/m2
15:14 73.5 °F /  23.1 °C 67.3 °F /  19.6 °C 30.03in /  1016.8hPa NE 1.7mph /  2.7km/h 10mph /  16.1km/h 80.8% 0.00in /  0mm 446 W/m2
15:19 73.5 °F /  23.1 °C 66.7 °F /  19.3 °C 30.03in /  1016.8hPa ENE 0.5mph /  0.8km/h 10mph /  16.1km/h 79.3% 0.00in /  0mm 213 W/m2
15:24 73.5 °F /  23.1 °C 67.1 °F /  19.5 °C 30.03in /  1016.8hPa Calm   10mph /  16.1km/h 80.5% 0.00in /  0mm 257 W/m2
15:29 73.5 °F /  23.1 °C 67.2 °F /  19.6 °C 30.03in /  1016.8hPa NNW 1.9mph /  3.1km/h 10mph /  16.1km/h 80.6% 0.00in /  0mm 262 W/m2
15:34 73.5 °F /  23.1 °C 67.1 °F /  19.5 °C 30.03in /  1016.8hPa ENE 1.1mph /  1.8km/h 10mph /  16.1km/h 80.3% 0.00in /  0mm 181 W/m2
15:39 73.4 °F /  23 °C 66.9 °F /  19.4 °C 30.03in /  1016.8hPa ENE 0.4mph /  0.6km/h 6mph /  9.7km/h 80% 0.00in /  0mm 167 W/m2
15:44 73.3 °F /  22.9 °C 67.1 °F /  19.5 °C 30.03in /  1016.8hPa ENE 0.3mph /  0.5km/h 6mph /  9.7km/h 80.9% 0.00in /  0mm 202 W/m2
15:49 73.4 °F /  23 °C 67.3 °F /  19.6 °C 30.03in /  1016.8hPa NNE 0.1mph /  0.2km/h 6mph /  9.7km/h 81.2% 0.00in /  0mm 253 W/m2
15:54 73.6 °F /  23.1 °C 67.4 °F /  19.7 °C 30.03in /  1016.8hPa NW 1.1mph /  1.8km/h 6mph /  9.7km/h 81% 0.00in /  0mm 318 W/m2
15:59 73.8 °F /  23.2 °C 67.6 °F /  19.8 °C 30.03in /  1016.8hPa NE 1.1mph /  1.8km/h 7mph /  11.3km/h 80.9% 0.00in /  0mm 352 W/m2
16:09 74.3 °F /  23.5 °C 68.1 °F /  20.1 °C 30.03in /  1016.8hPa Calm     80.9% 0.00in /  0mm 362 W/m2
16:14 74.5 °F /  23.6 °C 67.7 °F /  19.8 °C 30.03in /  1016.8hPa Calm     79.2% 0.00in /  0mm 290 W/m2
16:19 74.6 °F /  23.7 °C 67.9 °F /  19.9 °C 30.03in /  1016.8hPa NE 0.4mph /  0.6km/h 4mph /  6.4km/h 79.5% 0.00in /  0mm 253 W/m2
16:24 74.6 °F /  23.7 °C 67.3 °F /  19.6 °C 30.02in /  1016.5hPa East 0.6mph /  1km/h 5mph /  8km/h 78.1% 0.00in /  0mm 229 W/m2
16:29 74.6 °F /  23.7 °C 67.9 °F /  19.9 °C 30.02in /  1016.5hPa NE 0.1mph /  0.2km/h 5mph /  8km/h 79.6% 0.00in /  0mm 199 W/m2
16:34 74.7 °F /  23.7 °C 67.7 °F /  19.8 °C 30.02in /  1016.5hPa NW 0.7mph /  1.1km/h 5mph /  8km/h 79% 0.00in /  0mm 174 W/m2
16:39 74.7 °F /  23.7 °C 67.4 °F /  19.7 °C 30.02in /  1016.5hPa NNE 0.2mph /  0.3km/h 5mph /  8km/h 78% 0.00in /  0mm 199 W/m2
16:44 74.8 °F /  23.8 °C 67.7 °F /  19.8 °C 30.03in /  1016.8hPa North 0.4mph /  0.6km/h 5mph /  8km/h 78.6% 0.00in /  0mm 216 W/m2
16:49 74.9 °F /  23.8 °C 67.7 °F /  19.8 °C 30.03in /  1016.8hPa NNW 0.4mph /  0.6km/h 5mph /  8km/h 78.1% 0.00in /  0mm 216 W/m2
16:54 75 °F /  23.9 °C 67.5 °F /  19.7 °C 30.03in /  1016.8hPa NNW 0.1mph /  0.2km/h 5mph /  8km/h 77.4% 0.00in /  0mm 155 W/m2
16:59 75 °F /  23.9 °C 67.6 °F /  19.8 °C 30.03in /  1016.8hPa NNW 0.1mph /  0.2km/h 5mph /  8km/h 77.8% 0.00in /  0mm 156 W/m2
17:04 75 °F /  23.9 °C 67.7 °F /  19.8 °C 30.03in /  1016.8hPa NNW 0.1mph /  0.2km/h 5mph /  8km/h 77.8% 0.00in /  0mm 160 W/m2
17:09 75.1 °F /  23.9 °C 67.6 °F /  19.8 °C 30.03in /  1016.8hPa North 0.2mph /  0.3km/h 2mph /  3.2km/h 77.6% 0.00in /  0mm 151 W/m2
17:14 75.1 °F /  23.9 °C 67.6 °F /  19.8 °C 30.03in /  1016.8hPa NNE 0.3mph /  0.5km/h 2mph /  3.2km/h 77.5% 0.00in /  0mm 130 W/m2
17:19 74.9 °F /  23.8 °C 67.3 °F /  19.6 °C 30.03in /  1016.8hPa NE 0.6mph /  1km/h 3mph /  4.8km/h 77.1% 0.00in /  0mm 111 W/m2
17:24 74.8 °F /  23.8 °C 67.5 °F /  19.7 °C 30.03in /  1016.8hPa NE 0.2mph /  0.3km/h 3mph /  4.8km/h 77.9% 0.00in /  0mm 109 W/m2
17:29 74.8 °F /  23.8 °C 67.6 °F /  19.8 °C 30.03in /  1016.8hPa NE 0.1mph /  0.2km/h 3mph /  4.8km/h 78.3% 0.00in /  0mm 102 W/m2
17:34 74.7 °F /  23.7 °C 67.4 °F /  19.7 °C 30.03in /  1016.8hPa NE 0.1mph /  0.2km/h 3mph /  4.8km/h 78% 0.00in /  0mm 90 W/m2
17:39 74.6 °F /  23.7 °C 67.3 °F /  19.6 °C 30.03in /  1016.8hPa Calm   2mph /  3.2km/h 78% 0.00in /  0mm 79 W/m2
17:44 74.5 °F /  23.6 °C 67.2 °F /  19.6 °C 30.03in /  1016.8hPa NE 0.2mph /  0.3km/h 2mph /  3.2km/h 78% 0.00in /  0mm 77 W/m2
17:49 74.4 °F /  23.6 °C 67.1 °F /  19.5 °C 30.03in /  1016.8hPa NE 0.4mph /  0.6km/h 2mph /  3.2km/h 78% 0.00in /  0mm 81 W/m2
17:54 74.3 °F /  23.5 °C 67 °F /  19.4 °C 30.03in /  1016.8hPa NE 0.1mph /  0.2km/h 2mph /  3.2km/h 78% 0.00in /  0mm 113 W/m2
17:59 74.2 °F /  23.4 °C 67 °F /  19.4 °C 30.03in /  1016.8hPa NE 0.1mph /  0.2km/h 2mph /  3.2km/h 78% 0.00in /  0mm 114 W/m2
18:04 74.2 °F /  23.4 °C 67 °F /  19.4 °C 30.03in /  1016.8hPa Calm   2mph /  3.2km/h 78.2% 0.00in /  0mm 102 W/m2
18:09 74.3 °F /  23.5 °C 67.1 °F /  19.5 °C 30.03in /  1016.8hPa Calm   1mph /  1.6km/h 78.3% 0.00in /  0mm 84 W/m2
18:14 74.3 °F /  23.5 °C 67.2 °F /  19.6 °C 30.03in /  1016.8hPa Calm   1mph /  1.6km/h 78.6% 0.00in /  0mm 76 W/m2
18:19 74.3 °F /  23.5 °C 67.3 °F /  19.6 °C 30.03in /  1016.8hPa NE 0.1mph /  0.2km/h 1mph /  1.6km/h 78.9% 0.00in /  0mm 65 W/m2
18:24 74.3 °F /  23.5 °C 67.1 °F /  19.5 °C 30.03in /  1016.8hPa NE 0.6mph /  1km/h 3mph /  4.8km/h 78.3% 0.00in /  0mm 60 W/m2
18:29 74.3 °F /  23.5 °C 67 °F /  19.4 °C 30.03in /  1016.8hPa NE 0.4mph /  0.6km/h 3mph /  4.8km/h 78% 0.00in /  0mm 53 W/m2
18:34 74.3 °F /  23.5 °C 67.1 °F /  19.5 °C 30.03in /  1016.8hPa NE 0.3mph /  0.5km/h 3mph /  4.8km/h 78.2% 0.00in /  0mm 47 W/m2
18:39 74.3 °F /  23.5 °C 67.1 °F /  19.5 °C 30.03in /  1016.8hPa NE 0.2mph /  0.3km/h 2mph /  3.2km/h 78.4% 0.00in /  0mm 58 W/m2
18:44 74.3 °F /  23.5 °C 67.3 °F /  19.6 °C 30.03in /  1016.8hPa Calm   2mph /  3.2km/h 78.8% 0.00in /  0mm 72 W/m2
18:49 74.4 °F /  23.6 °C 67.1 °F /  19.5 °C 30.03in /  1016.8hPa Calm   2mph /  3.2km/h 78% 0.00in /  0mm 70 W/m2
18:54 74.5 °F /  23.6 °C 67.2 °F /  19.6 °C 30.03in /  1016.8hPa Calm   2mph /  3.2km/h 78% 0.00in /  0mm 39 W/m2
18:59 74.5 °F /  23.6 °C 67.2 °F /  19.6 °C 30.03in /  1016.8hPa Calm   2mph /  3.2km/h 78% 0.00in /  0mm 23 W/m2
19:04 74.5 °F /  23.6 °C 67.1 °F /  19.5 °C 30.03in /  1016.8hPa Calm   2mph /  3.2km/h 77.8% 0.00in /  0mm 26 W/m2
19:09 74.3 °F /  23.5 °C 67 °F /  19.4 °C 30.03in /  1016.8hPa Calm   1mph /  1.6km/h 77.9% 0.00in /  0mm 28 W/m2
19:14 74.3 °F /  23.5 °C 67 °F /  19.4 °C 30.03in /  1016.8hPa Calm   1mph /  1.6km/h 78% 0.00in /  0mm 28 W/m2
19:19 74.3 °F /  23.5 °C 67 °F /  19.4 °C 30.03in /  1016.8hPa Calm   1mph /  1.6km/h 78% 0.00in /  0mm 23 W/m2
19:24 74.2 °F /  23.4 °C 66.9 °F /  19.4 °C 30.03in /  1016.8hPa Calm   1mph /  1.6km/h 78% 0.00in /  0mm 23 W/m2
19:29 74.2 °F /  23.4 °C 66.9 °F /  19.4 °C 30.03in /  1016.8hPa Calm   1mph /  1.6km/h 78% 0.00in /  0mm 19 W/m2
19:34 74.1 °F /  23.4 °C 66.8 °F /  19.3 °C 30.03in /  1016.8hPa Calm   1mph /  1.6km/h 78% 0.00in /  0mm 14 W/m2
19:39 74 °F /  23.3 °C 66.7 °F /  19.3 °C 30.03in /  1016.8hPa Calm     78% 0.00in /  0mm 11 W/m2
19:44 74 °F /  23.3 °C 66.7 °F /  19.3 °C 30.04in /  1017.2hPa Calm     78% 0.00in /  0mm 7 W/m2
19:49 73.8 °F /  23.2 °C 66.6 °F /  19.2 °C 30.04in /  1017.2hPa Calm     78% 0.00in /  0mm 5 W/m2
19:54 73.7 °F /  23.2 °C 66.4 °F /  19.1 °C 30.04in /  1017.2hPa Calm     78% 0.00in /  0mm 0 W/m2
19:59 73.6 °F /  23.1 °C 66.5 °F /  19.2 °C 30.04in /  1017.2hPa Calm     78.4% 0.00in /  0mm 0 W/m2
20:09 73.3 °F /  22.9 °C 66.4 °F /  19.1 °C 30.04in /  1017.2hPa Calm     79% 0.00in /  0mm 0 W/m2
20:14 73 °F /  22.8 °C 66.5 °F /  19.2 °C 30.04in /  1017.2hPa Calm     79.9% 0.00in /  0mm 0 W/m2
20:19 72.8 °F /  22.7 °C 66.3 °F /  19.1 °C 30.04in /  1017.2hPa Calm     80% 0.00in /  0mm 0 W/m2
20:24 72.6 °F /  22.6 °C 66.4 °F /  19.1 °C 30.04in /  1017.2hPa Calm     80.8% 0.00in /  0mm 0 W/m2
20:29 72.4 °F /  22.4 °C 66.4 °F /  19.1 °C 30.04in /  1017.2hPa Calm     81.6% 0.00in /  0mm 0 W/m2
20:34 72.1 °F /  22.3 °C 66.5 °F /  19.2 °C 30.05in /  1017.5hPa Calm     82.4% 0.00in /  0mm 0 W/m2
20:39 71.9 °F /  22.2 °C 66.4 °F /  19.1 °C 30.05in /  1017.5hPa Calm     82.8% 0.00in /  0mm 0 W/m2
20:44 71.7 °F /  22.1 °C 66.3 °F /  19.1 °C 30.05in /  1017.5hPa Calm     83.2% 0.00in /  0mm 0 W/m2
20:49 71.5 °F /  21.9 °C 66.4 °F /  19.1 °C 30.05in /  1017.5hPa Calm     84% 0.00in /  0mm 0 W/m2
20:54 71.2 °F /  21.8 °C 66.2 °F /  19 °C 30.05in /  1017.5hPa Calm     84.3% 0.00in /  0mm 0 W/m2
20:59 70.9 °F /  21.6 °C 66.2 °F /  19 °C 30.05in /  1017.5hPa Calm     85% 0.00in /  0mm 0 W/m2
21:04 70.7 °F /  21.5 °C 66.2 °F /  19 °C 30.06in /  1017.8hPa Calm     85.6% 0.00in /  0mm 0 W/m2
21:09 70.6 °F /  21.4 °C 66.2 °F /  19 °C 30.06in /  1017.8hPa Calm     86% 0.00in /  0mm 0 W/m2
21:14 70.4 °F /  21.3 °C 66 °F /  18.9 °C 30.06in /  1017.8hPa Calm     86% 0.00in /  0mm 0 W/m2
21:19 70.3 °F /  21.3 °C 66.1 °F /  18.9 °C 30.06in /  1017.8hPa Calm     86.6% 0.00in /  0mm 0 W/m2
21:24 70.1 °F /  21.2 °C 66.1 °F /  18.9 °C 30.06in /  1017.8hPa Calm     87% 0.00in /  0mm 0 W/m2
21:29 69.9 °F /  21.1 °C 65.9 °F /  18.8 °C 30.06in /  1017.8hPa Calm     87% 0.00in /  0mm 0 W/m2
21:34 69.8 °F /  21 °C 66.1 °F /  18.9 °C 30.06in /  1017.8hPa Calm     88% 0.00in /  0mm 0 W/m2
21:39 69.7 °F /  20.9 °C 66 °F /  18.9 °C 30.06in /  1017.8hPa Calm     88% 0.00in /  0mm 0 W/m2
21:44 69.5 °F /  20.8 °C 65.8 °F /  18.8 °C 30.07in /  1018.2hPa Calm     88% 0.00in /  0mm 0 W/m2
21:49 69.4 °F /  20.8 °C 65.7 °F /  18.7 °C 30.07in /  1018.2hPa Calm     88.2% 0.00in /  0mm 0 W/m2
21:54 69.2 °F /  20.7 °C 65.8 °F /  18.8 °C 30.07in /  1018.2hPa Calm     89% 0.00in /  0mm 0 W/m2
21:59 69 °F /  20.6 °C 65.7 °F /  18.7 °C 30.08in /  1018.5hPa Calm     89% 0.00in /  0mm 0 W/m2
22:04 68.9 °F /  20.5 °C 65.5 °F /  18.6 °C 30.07in /  1018.2hPa Calm     89% 0.00in /  0mm 0 W/m2
22:09 68.8 °F /  20.4 °C 65.4 °F /  18.6 °C 30.08in /  1018.5hPa Calm     89% 0.00in /  0mm 0 W/m2
22:14 68.6 °F /  20.3 °C 65.5 °F /  18.6 °C 30.08in /  1018.5hPa Calm     89.8% 0.00in /  0mm 0 W/m2
22:19 68.5 °F /  20.3 °C 65.5 °F /  18.6 °C 30.08in /  1018.5hPa Calm     90% 0.00in /  0mm 0 W/m2
22:24 68.5 °F /  20.3 °C 65.4 °F /  18.6 °C 30.08in /  1018.5hPa Calm     90% 0.00in /  0mm 0 W/m2
22:29 68.4 °F /  20.2 °C 65.3 °F /  18.5 °C 30.08in /  1018.5hPa Calm     90% 0.00in /  0mm 0 W/m2
22:34 68.3 °F /  20.2 °C 65.5 °F /  18.6 °C 30.08in /  1018.5hPa Calm     90.8% 0.00in /  0mm 0 W/m2
22:39 68.2 °F /  20.1 °C 65.4 °F /  18.6 °C 30.08in /  1018.5hPa Calm     90.7% 0.00in /  0mm 0 W/m2
22:44 68.1 °F /  20.1 °C 65.4 °F /  18.6 °C 30.08in /  1018.5hPa Calm     91% 0.00in /  0mm 0 W/m2
22:49 68.1 °F /  20.1 °C 65.4 °F /  18.6 °C 30.08in /  1018.5hPa Calm     91% 0.00in /  0mm 0 W/m2
22:54 68.1 °F /  20.1 °C 65.3 °F /  18.5 °C 30.08in /  1018.5hPa Calm     91% 0.00in /  0mm 0 W/m2
22:59 68 °F /  20 °C 65.2 °F /  18.4 °C 30.08in /  1018.5hPa Calm     91% 0.00in /  0mm 0 W/m2
23:04 67.9 °F /  19.9 °C 65.1 °F /  18.4 °C 30.08in /  1018.5hPa Calm     91% 0.00in /  0mm 0 W/m2
23:09 67.7 °F /  19.8 °C 65 °F /  18.3 °C 30.08in /  1018.5hPa Calm     91% 0.00in /  0mm 0 W/m2
23:14 67.6 °F /  19.8 °C 65 °F /  18.3 °C 30.08in /  1018.5hPa Calm     91.3% 0.00in /  0mm 0 W/m2
23:19 67.5 °F /  19.7 °C 64.8 °F /  18.2 °C 30.08in /  1018.5hPa Calm     91% 0.00in /  0mm 0 W/m2
23:24 67.4 °F /  19.7 °C 65 °F /  18.3 °C 30.08in /  1018.5hPa Calm     92% 0.00in /  0mm 0 W/m2
23:29 67.4 °F /  19.7 °C 65 °F /  18.3 °C 30.08in /  1018.5hPa Calm     92% 0.00in /  0mm 0 W/m2
23:34 67.2 °F /  19.6 °C 64.8 °F /  18.2 °C 30.08in /  1018.5hPa Calm     92% 0.00in /  0mm 0 W/m2
23:39 67.1 °F /  19.5 °C 64.7 °F /  18.2 °C 30.08in /  1018.5hPa Calm     92% 0.00in /  0mm 0 W/m2
23:44 67 °F /  19.4 °C 64.6 °F /  18.1 °C 30.08in /  1018.5hPa Calm     92% 0.00in /  0mm 0 W/m2
23:49 66.8 °F /  19.3 °C 64.4 °F /  18 °C 30.08in /  1018.5hPa Calm     92% 0.00in /  0mm 0 W/m2
23:54 66.7 °F /  19.3 °C 64.3 °F /  17.9 °C 30.08in /  1018.5hPa Calm     92% 0.00in /  0mm 0 W/m2
23:59 66.6 °F /  19.2 °C 64.2 °F /  17.9 °C 30.08in /  1018.5hPa Calm     92% 0.00in /  0mm 0 W/m2
Hartford County Weather
Compliments of Weather Underground - 2 mb